sensor_id;sensor_type;location;lat;lon;timestamp;pressure;altitude;pressure_sealevel;temperature;humidity
30073;BME280;16897;52.422;13.678;2023-01-28T00:01:52;102266.31;;;3.09;62.63
30073;BME280;16897;52.422;13.678;2023-01-28T00:06:03;102270.59;;;3.04;62.58
30073;BME280;16897;52.422;13.678;2023-01-28T00:10:05;102272.31;;;2.99;62.59
30073;BME280;16897;52.422;13.678;2023-01-28T00:14:10;102315.34;;;3.23;62.60
30073;BME280;16897;52.422;13.678;2023-01-28T00:18:12;102233.59;;;2.73;62.75
30073;BME280;16897;52.422;13.678;2023-01-28T00:22:14;102299.00;;;3.14;62.56
30073;BME280;16897;52.422;13.678;2023-01-28T00:26:15;102245.63;;;2.68;62.43
30073;BME280;16897;52.422;13.678;2023-01-28T00:30:19;102244.75;;;2.68;62.49
30073;BME280;16897;52.422;13.678;2023-01-28T00:34:21;102313.59;;;2.96;62.52
30073;BME280;16897;52.422;13.678;2023-01-28T00:38:23;102358.38;;;3.23;62.71
30073;BME280;16897;52.422;13.678;2023-01-28T00:42:25;102283.47;;;2.74;62.76
30073;BME280;16897;52.422;13.678;2023-01-28T00:46:30;102328.25;;;3.00;62.39
30073;BME280;16897;52.422;13.678;2023-01-28T00:50:31;102357.50;;;3.13;62.40
30073;BME280;16897;52.422;13.678;2023-01-28T00:54:33;102342.00;;;3.04;62.55
30073;BME280;16897;52.422;13.678;2023-01-28T00:58:36;102342.88;;;3.00;62.54
30073;BME280;16897;52.422;13.678;2023-01-28T01:02:40;102377.28;;;3.11;62.56
30073;BME280;16897;52.422;13.678;2023-01-28T01:06:41;102349.72;;;2.93;62.53
30073;BME280;16897;52.422;13.678;2023-01-28T01:10:43;102367.78;;;2.96;62.38
30073;BME280;16897;52.422;13.678;2023-01-28T01:14:44;102367.78;;;2.99;62.54
30073;BME280;16897;52.422;13.678;2023-01-28T01:18:46;102354.88;;;2.90;62.59
30073;BME280;16897;52.422;13.678;2023-01-28T01:22:47;102348.81;;;2.79;62.59
30073;BME280;16897;52.422;13.678;2023-01-28T01:26:49;102365.19;;;2.90;62.46
30073;BME280;16897;52.422;13.678;2023-01-28T01:30:58;102367.75;;;2.85;62.51
30073;BME280;16897;52.422;13.678;2023-01-28T01:35:00;102376.34;;;2.86;62.50
30073;BME280;16897;52.422;13.678;2023-01-28T01:39:02;102367.72;;;2.76;62.25
30073;BME280;16897;52.422;13.678;2023-01-28T01:43:17;102367.69;;;2.75;62.50
30073;BME280;16897;52.422;13.678;2023-01-28T01:47:22;102347.88;;;2.55;62.55
30073;BME280;16897;52.422;13.678;2023-01-28T01:51:27;102365.09;;;2.62;62.51
30073;BME280;16897;52.422;13.678;2023-01-28T01:55:32;102380.59;;;2.69;62.51
30073;BME280;16897;52.422;13.678;2023-01-28T01:59:35;102332.31;;;2.38;62.60
30073;BME280;16897;52.422;13.678;2023-01-28T02:08:05;102375.38;;;2.61;62.58
30073;BME280;16897;52.422;13.678;2023-01-28T02:12:26;102362.41;;;2.46;62.59
30073;BME280;16897;52.422;13.678;2023-01-28T02:16:30;102375.34;;;2.49;62.46
30073;BME280;16897;52.422;13.678;2023-01-28T02:33:45;102375.34;;;2.52;62.66
30073;BME280;16897;52.422;13.678;2023-01-28T02:37:53;102380.50;;;2.52;62.62
30073;BME280;16897;52.422;13.678;2023-01-28T02:42:02;102363.25;;;2.38;62.53
30073;BME280;16897;52.422;13.678;2023-01-28T02:50:36;102389.09;;;2.49;62.54
30073;BME280;16897;52.422;13.678;2023-01-28T02:55:09;102378.72;;;2.43;62.56
30073;BME280;16897;52.422;13.678;2023-01-28T03:07:46;102387.41;;;2.51;62.68
30073;BME280;16897;52.422;13.678;2023-01-28T03:11:55;102396.84;;;2.52;62.84
30073;BME280;16897;52.422;13.678;2023-01-28T03:16:16;102383.03;;;2.46;62.73
30073;BME280;16897;52.422;13.678;2023-01-28T03:20:57;102402.88;;;2.54;62.69
30073;BME280;16897;52.422;13.678;2023-01-28T03:25:21;102382.19;;;2.45;62.77
30073;BME280;16897;52.422;13.678;2023-01-28T03:29:43;102391.69;;;2.54;62.72
30073;BME280;16897;52.422;13.678;2023-01-28T03:34:05;102366.69;;;2.42;62.63
30073;BME280;16897;52.422;13.678;2023-01-28T03:38:26;102380.50;;;2.50;62.71
30073;BME280;16897;52.422;13.678;2023-01-28T03:42:34;102378.78;;;2.51;62.98
30073;BME280;16897;52.422;13.678;2023-01-28T03:46:43;102380.50;;;2.56;62.82
30073;BME280;16897;52.422;13.678;2023-01-28T03:50:45;102391.72;;;2.61;62.78
30073;BME280;16897;52.422;13.678;2023-01-28T03:54:48;102283.97;;;1.94;62.69
30073;BME280;16897;52.422;13.678;2023-01-28T03:58:50;102394.31;;;2.63;62.72
30073;BME280;16897;52.422;13.678;2023-01-28T04:02:58;102369.31;;;2.48;62.70
30073;BME280;16897;52.422;13.678;2023-01-28T04:07:00;102377.94;;;2.56;62.86
30073;BME280;16897;52.422;13.678;2023-01-28T04:11:25;102390.88;;;2.64;62.73
30073;BME280;16897;52.422;13.678;2023-01-28T04:15:27;102359.00;;;2.48;62.71
30073;BME280;16897;52.422;13.678;2023-01-28T04:19:32;102385.72;;;2.64;62.84
30073;BME280;16897;52.422;13.678;2023-01-28T04:23:38;102349.53;;;2.47;62.70
30073;BME280;16897;52.422;13.678;2023-01-28T04:27:41;102384.88;;;2.62;62.78
30073;BME280;16897;52.422;13.678;2023-01-28T04:31:59;102367.59;;;2.47;62.81
30073;BME280;16897;52.422;13.678;2023-01-28T04:36:10;102333.94;;;2.24;62.75
30073;BME280;16897;52.422;13.678;2023-01-28T04:40:23;102335.72;;;2.30;62.80
30073;BME280;16897;52.422;13.678;2023-01-28T04:44:31;102394.31;;;2.66;62.61
30073;BME280;16897;52.422;13.678;2023-01-28T04:48:59;102401.19;;;2.67;62.65
30073;BME280;16897;52.422;13.678;2023-01-28T04:53:40;102367.59;;;2.47;62.81
30073;BME280;16897;52.422;13.678;2023-01-28T04:57:58;102398.63;;;2.65;62.78
30073;BME280;16897;52.422;13.678;2023-01-28T05:02:00;102391.78;;;2.68;62.79
30073;BME280;16897;52.422;13.678;2023-01-28T05:06:01;102365.88;;;2.54;62.77
30073;BME280;16897;52.422;13.678;2023-01-28T05:10:17;102405.50;;;2.66;62.76
30073;BME280;16897;52.422;13.678;2023-01-28T05:14:22;102402.91;;;2.63;62.76
30073;BME280;16897;52.422;13.678;2023-01-28T05:18:32;102390.88;;;2.64;62.78
30073;BME280;16897;52.422;13.678;2023-01-28T05:22:43;102427.91;;;2.74;62.92
30073;BME280;16897;52.422;13.678;2023-01-28T05:26:57;102417.56;;;2.71;62.84
30073;BME280;16897;52.422;13.678;2023-01-28T05:31:05;102423.63;;;2.76;62.86
30073;BME280;16897;52.422;13.678;2023-01-28T05:35:07;102415.84;;;2.73;62.87
30073;BME280;16897;52.422;13.678;2023-01-28T05:39:09;102416.69;;;2.69;62.87
30073;BME280;16897;52.422;13.678;2023-01-28T05:43:11;102420.13;;;2.69;62.98
30073;BME280;16897;52.422;13.678;2023-01-28T05:47:18;102401.22;;;2.69;62.77
30073;BME280;16897;52.422;13.678;2023-01-28T05:51:26;102397.78;;;2.68;62.83
30073;BME280;16897;52.422;13.678;2023-01-28T05:55:31;102410.69;;;2.74;62.87
30073;BME280;16897;52.422;13.678;2023-01-28T05:59:33;102406.41;;;2.78;62.67
30073;BME280;16897;52.422;13.678;2023-01-28T06:03:34;102412.41;;;2.74;62.83
30073;BME280;16897;52.422;13.678;2023-01-28T06:07:36;102427.94;;;2.83;62.75
30073;BME280;16897;52.422;13.678;2023-01-28T06:11:38;102396.09;;;2.70;62.55
30073;BME280;16897;52.422;13.678;2023-01-28T06:15:40;102422.75;;;2.80;62.97
30073;BME280;16897;52.422;13.678;2023-01-28T06:19:51;102424.50;;;2.82;62.82
30073;BME280;16897;52.422;13.678;2023-01-28T06:23:53;102433.97;;;2.86;62.88
30073;BME280;16897;52.422;13.678;2023-01-28T06:27:55;102403.84;;;2.73;62.82
30073;BME280;16897;52.422;13.678;2023-01-28T06:31:57;102423.66;;;2.86;62.99
30073;BME280;16897;52.422;13.678;2023-01-28T06:36:01;102421.03;;;2.83;62.91
30073;BME280;16897;52.422;13.678;2023-01-28T06:40:03;102376.22;;;2.55;62.72
30073;BME280;16897;52.422;13.678;2023-01-28T06:44:04;102422.78;;;2.84;62.79
30073;BME280;16897;52.422;13.678;2023-01-28T06:48:06;102422.78;;;2.87;62.96
30073;BME280;16897;52.422;13.678;2023-01-28T06:52:07;102421.91;;;2.76;62.74
30073;BME280;16897;52.422;13.678;2023-01-28T06:56:09;102346.03;;;2.34;62.92
30073;BME280;16897;52.422;13.678;2023-01-28T07:00:11;102431.38;;;2.85;62.90
30073;BME280;16897;52.422;13.678;2023-01-28T07:04:15;102437.44;;;2.90;62.72
30073;BME280;16897;52.422;13.678;2023-01-28T07:08:16;102435.72;;;2.92;62.78
30073;BME280;16897;52.422;13.678;2023-01-28T07:12:18;102430.56;;;2.89;62.90
30073;BME280;16897;52.422;13.678;2023-01-28T07:16:20;102424.50;;;2.82;63.01
30073;BME280;16897;52.422;13.678;2023-01-28T07:20:21;102442.56;;;2.88;62.92
30073;BME280;16897;52.422;13.678;2023-01-28T07:24:23;102430.53;;;2.81;62.88
30073;BME280;16897;52.422;13.678;2023-01-28T07:28:24;102441.72;;;2.91;62.85
30073;BME280;16897;52.422;13.678;2023-01-28T07:32:26;102415.88;;;2.77;62.73
30073;BME280;16897;52.422;13.678;2023-01-28T07:36:28;102450.34;;;2.93;62.67
30073;BME280;16897;52.422;13.678;2023-01-28T07:40:29;102455.50;;;2.96;62.82
30073;BME280;16897;52.422;13.678;2023-01-28T07:44:33;102390.00;;;2.60;62.76
30073;BME280;16897;52.422;13.678;2023-01-28T07:48:35;102458.97;;;2.98;62.73
30073;BME280;16897;52.422;13.678;2023-01-28T07:52:37;102423.63;;;2.83;62.81
30073;BME280;16897;52.422;13.678;2023-01-28T07:56:44;102377.91;;;2.47;62.81
30073;BME280;16897;52.422;13.678;2023-01-28T08:00:45;102452.09;;;3.00;62.91
30073;BME280;16897;52.422;13.678;2023-01-28T08:04:47;102441.72;;;2.94;62.82
30073;BME280;16897;52.422;13.678;2023-01-28T08:08:48;102438.31;;;2.95;62.72
30073;BME280;16897;52.422;13.678;2023-01-28T08:12:54;102462.41;;;2.97;62.86
30073;BME280;16897;52.422;13.678;2023-01-28T08:16:56;102451.22;;;2.98;62.73
30073;BME280;16897;52.422;13.678;2023-01-28T08:20:58;102427.06;;;2.85;62.74
30073;BME280;16897;52.422;13.678;2023-01-28T08:25:00;102400.34;;;2.63;62.87
30073;BME280;16897;52.422;13.678;2023-01-28T08:29:02;102465.03;;;3.06;62.80
30073;BME280;16897;52.422;13.678;2023-01-28T08:33:04;102462.44;;;3.06;62.84
30073;BME280;16897;52.422;13.678;2023-01-28T08:37:06;102468.47;;;3.10;62.85
30073;BME280;16897;52.422;13.678;2023-01-28T08:41:07;102390.88;;;2.62;62.95
30073;BME280;16897;52.422;13.678;2023-01-28T08:45:09;102476.25;;;3.18;62.94
30073;BME280;16897;52.422;13.678;2023-01-28T08:49:11;102465.03;;;3.13;62.88
30073;BME280;16897;52.422;13.678;2023-01-28T08:53:14;102471.94;;;3.15;63.10
30073;BME280;16897;52.422;13.678;2023-01-28T08:57:16;102467.66;;;3.22;62.89
30073;BME280;16897;52.422;13.678;2023-01-28T09:01:18;102482.31;;;3.30;63.01
30073;BME280;16897;52.422;13.678;2023-01-28T09:05:20;102478.00;;;3.25;62.90
30073;BME280;16897;52.422;13.678;2023-01-28T09:09:22;102492.66;;;3.30;62.85
30073;BME280;16897;52.422;13.678;2023-01-28T09:13:24;102521.09;;;3.44;62.77
30073;BME280;16897;52.422;13.678;2023-01-28T09:17:25;102505.59;;;3.44;63.16
30073;BME280;16897;52.422;13.678;2023-01-28T09:21:27;102452.13;;;3.16;62.97
30073;BME280;16897;52.422;13.678;2023-01-28T09:25:28;102517.69;;;3.58;62.89
30073;BME280;16897;52.422;13.678;2023-01-28T09:29:32;102507.34;;;3.48;62.70
30073;BME280;16897;52.422;13.678;2023-01-28T09:33:35;102521.97;;;3.55;62.96
30073;BME280;16897;52.422;13.678;2023-01-28T09:37:37;102512.53;;;3.51;63.19
30073;BME280;16897;52.422;13.678;2023-01-28T09:45:50;102509.09;;;3.57;62.94
30073;BME280;16897;52.422;13.678;2023-01-28T09:49:54;102497.88;;;3.49;62.88
30073;BME280;16897;52.422;13.678;2023-01-28T09:54:02;102511.66;;;3.62;62.88
30073;BME280;16897;52.422;13.678;2023-01-28T09:58:10;102505.66;;;3.60;63.01
30073;BME280;16897;52.422;13.678;2023-01-28T10:11:04;102539.28;;;3.81;63.04
30073;BME280;16897;52.422;13.678;2023-01-28T10:15:46;102529.78;;;3.83;62.95
30073;BME280;16897;52.422;13.678;2023-01-28T10:19:49;102520.34;;;3.82;62.87
30073;BME280;16897;52.422;13.678;2023-01-28T10:28:28;102492.75;;;3.66;62.88
30073;BME280;16897;52.422;13.678;2023-01-28T10:32:32;102495.34;;;3.75;62.95
30073;BME280;16897;52.422;13.678;2023-01-28T10:36:34;102518.59;;;3.89;63.03
30073;BME280;16897;52.422;13.678;2023-01-28T10:40:36;102499.66;;;3.85;62.76
30073;BME280;16897;52.422;13.678;2023-01-28T10:44:40;102435.84;;;3.40;62.93
30073;BME280;16897;52.422;13.678;2023-01-28T10:48:58;102440.22;;;3.51;62.82
30073;BME280;16897;52.422;13.678;2023-01-28T10:53:05;102431.59;;;3.57;62.92
30073;BME280;16897;52.422;13.678;2023-01-28T10:57:13;102423.81;;;3.48;62.70
30073;BME280;16897;52.422;13.678;2023-01-28T11:01:16;102443.66;;;3.60;62.75
30073;BME280;16897;52.422;13.678;2023-01-28T11:05:22;102516.06;;;4.06;62.99
30073;BME280;16897;52.422;13.678;2023-01-28T11:09:36;102477.25;;;3.89;62.77
30073;BME280;16897;52.422;13.678;2023-01-28T11:13:48;102411.78;;;3.50;62.84
30073;BME280;16897;52.422;13.678;2023-01-28T11:18:04;102476.41;;;3.87;63.05
30073;BME280;16897;52.422;13.678;2023-01-28T11:22:30;102511.75;;;4.17;62.78
30073;BME280;16897;52.422;13.678;2023-01-28T11:26:35;102501.41;;;4.09;62.84
30073;BME280;16897;52.422;13.678;2023-01-28T11:30:37;102472.09;;;3.96;62.63
30073;BME280;16897;52.422;13.678;2023-01-28T11:34:46;102487.63;;;4.12;62.76
30073;BME280;16897;52.422;13.678;2023-01-28T11:38:57;102498.84;;;4.21;62.84
30073;BME280;16897;52.422;13.678;2023-01-28T11:43:00;102408.34;;;3.69;62.57
30073;BME280;16897;52.422;13.678;2023-01-28T12:22:28;102469.50;;;4.33;62.61
30073;BME280;16897;52.422;13.678;2023-01-28T12:26:44;102473.81;;;4.36;62.60
30073;BME280;16897;52.422;13.678;2023-01-28T12:35:49;102469.50;;;4.39;62.72
30073;BME280;16897;52.422;13.678;2023-01-28T12:40:22;102473.81;;;4.42;62.52
30073;BME280;16897;52.422;13.678;2023-01-28T12:44:34;102449.69;;;4.32;62.89
30073;BME280;16897;52.422;13.678;2023-01-28T12:48:41;102429.00;;;4.18;62.66
30073;BME280;16897;52.422;13.678;2023-01-28T12:52:54;102459.13;;;4.42;62.59
30073;BME280;16897;52.422;13.678;2023-01-28T12:56:57;102443.66;;;4.36;62.51
30073;BME280;16897;52.422;13.678;2023-01-28T13:01:02;102386.81;;;3.93;62.41
30073;BME280;16897;52.422;13.678;2023-01-28T13:05:17;102453.13;;;4.40;62.61
30073;BME280;16897;52.422;13.678;2023-01-28T13:09:23;102438.47;;;4.39;62.30
30073;BME280;16897;52.422;13.678;2023-01-28T13:13:36;102446.22;;;4.49;62.57
30073;BME280;16897;52.422;13.678;2023-01-28T13:17:38;102374.75;;;4.06;62.35
30073;BME280;16897;52.422;13.678;2023-01-28T13:21:40;102367.84;;;4.07;62.45
30073;BME280;16897;52.422;13.678;2023-01-28T13:25:47;102377.31;;;4.14;62.40
30073;BME280;16897;52.422;13.678;2023-01-28T13:30:00;102406.56;;;4.42;62.49
30073;BME280;16897;52.422;13.678;2023-01-28T13:34:02;102366.94;;;4.26;62.33
30073;BME280;16897;52.422;13.678;2023-01-28T13:38:22;102402.25;;;4.39;62.42
30073;BME280;16897;52.422;13.678;2023-01-28T13:42:27;102422.06;;;4.53;62.33
30073;BME280;16897;52.422;13.678;2023-01-28T13:46:30;102369.56;;;4.21;62.45
30073;BME280;16897;52.422;13.678;2023-01-28T13:50:40;102384.16;;;4.33;62.46
30073;BME280;16897;52.422;13.678;2023-01-28T14:04:17;102417.75;;;4.55;62.50
30073;BME280;16897;52.422;13.678;2023-01-28T14:21:21;102403.09;;;4.48;62.34
30073;BME280;16897;52.422;13.678;2023-01-28T14:34:25;102372.91;;;4.50;62.16
30073;BME280;16897;52.422;13.678;2023-01-28T14:38:28;102362.59;;;4.43;62.40
30073;BME280;16897;52.422;13.678;2023-01-28T14:42:46;102383.22;;;4.59;62.38
30073;BME280;16897;52.422;13.678;2023-01-28T14:46:57;102390.97;;;4.59;62.47
30073;BME280;16897;52.422;13.678;2023-01-28T15:00:21;102403.94;;;4.54;62.38
30073;BME280;16897;52.422;13.678;2023-01-28T15:04:29;102409.97;;;4.58;62.29
30073;BME280;16897;52.422;13.678;2023-01-28T15:08:31;102333.38;;;4.17;62.35
30073;BME280;16897;52.422;13.678;2023-01-28T15:12:37;102414.28;;;4.56;62.32
30073;BME280;16897;52.422;13.678;2023-01-28T15:16:39;102390.16;;;4.49;62.31
30073;BME280;16897;52.422;13.678;2023-01-28T15:20:46;102397.97;;;4.43;62.34
30073;BME280;16897;52.422;13.678;2023-01-28T15:24:48;102396.22;;;4.42;62.03
30073;BME280;16897;52.422;13.678;2023-01-28T15:28:50;102417.72;;;4.56;62.29
30073;BME280;16897;52.422;13.678;2023-01-28T15:33:10;102320.47;;;3.98;62.00
30073;BME280;16897;52.422;13.678;2023-01-28T15:37:13;102413.44;;;4.49;62.29
30073;BME280;16897;52.422;13.678;2023-01-28T15:41:14;102401.34;;;4.48;62.28
30073;BME280;16897;52.422;13.678;2023-01-28T15:45:17;102420.31;;;4.53;62.28
30073;BME280;16897;52.422;13.678;2023-01-28T15:49:19;102423.78;;;4.55;62.25
30073;BME280;16897;52.422;13.678;2023-01-28T15:53:21;102402.25;;;4.44;62.07
30073;BME280;16897;52.422;13.678;2023-01-28T15:57:28;102324.78;;;3.96;61.95
30073;BME280;16897;52.422;13.678;2023-01-28T16:01:34;102417.75;;;4.49;62.07
30073;BME280;16897;52.422;13.678;2023-01-28T16:05:38;102370.41;;;4.20;61.96
30073;BME280;16897;52.422;13.678;2023-01-28T16:09:41;102344.59;;;4.07;61.98
30073;BME280;16897;52.422;13.678;2023-01-28T16:13:43;102315.34;;;3.79;62.06
30073;BME280;16897;52.422;13.678;2023-01-28T16:17:50;102382.50;;;4.11;62.12
30073;BME280;16897;52.422;13.678;2023-01-28T16:21:52;102388.53;;;4.16;62.15
30073;BME280;16897;52.422;13.678;2023-01-28T16:26:01;102433.28;;;4.42;61.94
30073;BME280;16897;52.422;13.678;2023-01-28T16:30:03;102383.34;;;4.25;62.14
30073;BME280;16897;52.422;13.678;2023-01-28T16:34:08;102429.81;;;4.53;62.21
30073;BME280;16897;52.422;13.678;2023-01-28T16:38:10;102397.09;;;4.32;62.00
30073;BME280;16897;52.422;13.678;2023-01-28T16:42:17;102420.34;;;4.47;61.99
30073;BME280;16897;52.422;13.678;2023-01-28T16:46:18;102410.00;;;4.39;61.93
30073;BME280;16897;52.422;13.678;2023-01-28T16:50:20;102416.91;;;4.42;62.07
30073;BME280;16897;52.422;13.678;2023-01-28T16:54:22;102427.25;;;4.37;61.90
30073;BME280;16897;52.422;13.678;2023-01-28T16:58:25;102422.09;;;4.28;61.89
30073;BME280;16897;52.422;13.678;2023-01-28T17:02:27;102435.03;;;4.31;61.88
30073;BME280;16897;52.422;13.678;2023-01-28T17:06:28;102445.34;;;4.37;61.92
30073;BME280;16897;52.422;13.678;2023-01-28T17:10:29;102447.97;;;4.25;61.93
30073;BME280;16897;52.422;13.678;2023-01-28T17:14:31;102461.75;;;4.35;62.01
30073;BME280;16897;52.422;13.678;2023-01-28T17:18:33;102481.59;;;4.33;62.07
30073;BME280;16897;52.422;13.678;2023-01-28T17:22:34;102490.22;;;4.30;61.80
30073;BME280;16897;52.422;13.678;2023-01-28T17:26:36;102404.03;;;3.77;61.86
30073;BME280;16897;52.422;13.678;2023-01-28T17:30:40;102476.44;;;4.16;61.78
30073;BME280;16897;52.422;13.678;2023-01-28T17:34:41;102499.69;;;4.19;61.82
30073;BME280;16897;52.422;13.678;2023-01-28T17:38:43;102476.44;;;4.11;61.93
30073;BME280;16897;52.422;13.678;2023-01-28T17:42:45;102441.94;;;3.77;61.88
30073;BME280;16897;52.422;13.678;2023-01-28T17:46:46;102485.88;;;3.98;61.82
30073;BME280;16897;52.422;13.678;2023-01-28T17:50:48;102485.03;;;4.03;61.99
30073;BME280;16897;52.422;13.678;2023-01-28T17:54:49;102490.19;;;4.07;61.84
30073;BME280;16897;52.422;13.678;2023-01-28T17:58:56;102443.66;;;3.76;61.77
30073;BME280;16897;52.422;13.678;2023-01-28T18:02:58;102497.97;;;4.03;61.91
30073;BME280;16897;52.422;13.678;2023-01-28T18:06:59;102380.78;;;3.44;61.73
30073;BME280;16897;52.422;13.678;2023-01-28T18:11:00;102457.47;;;3.92;61.89
30073;BME280;16897;52.422;13.678;2023-01-28T18:15:07;102475.56;;;4.03;61.90
30073;BME280;16897;52.422;13.678;2023-01-28T18:19:09;102456.59;;;3.84;61.92
30073;BME280;16897;52.422;13.678;2023-01-28T18:23:11;102500.56;;;4.09;61.79
30073;BME280;16897;52.422;13.678;2023-01-28T18:27:12;102476.41;;;3.99;61.84
30073;BME280;16897;52.422;13.678;2023-01-28T18:31:14;102469.53;;;3.98;61.94
30073;BME280;16897;52.422;13.678;2023-01-28T18:35:15;102380.78;;;3.39;61.80
30073;BME280;16897;52.422;13.678;2023-01-28T18:39:17;102479.88;;;4.01;61.87
30073;BME280;16897;52.422;13.678;2023-01-28T18:43:20;102483.31;;;4.02;61.85
30073;BME280;16897;52.422;13.678;2023-01-28T18:47:21;102479.84;;;3.99;61.63
30073;BME280;16897;52.422;13.678;2023-01-28T18:51:23;102484.19;;;3.94;61.80
30073;BME280;16897;52.422;13.678;2023-01-28T18:55:26;102413.50;;;3.52;61.76
30073;BME280;16897;52.422;13.678;2023-01-28T18:59:28;102484.16;;;3.91;61.65
30073;BME280;16897;52.422;13.678;2023-01-28T19:03:29;102498.81;;;3.85;61.91
30073;BME280;16897;52.422;13.678;2023-01-28T19:07:31;102487.59;;;3.80;61.77
30073;BME280;16897;52.422;13.678;2023-01-28T19:11:32;102478.13;;;3.74;61.53
30073;BME280;16897;52.422;13.678;2023-01-28T19:15:34;102485.03;;;3.78;61.74
30073;BME280;16897;52.422;13.678;2023-01-28T19:19:35;102484.16;;;3.73;61.57
30073;BME280;16897;52.422;13.678;2023-01-28T19:23:37;102509.13;;;3.80;61.70
30073;BME280;16897;52.422;13.678;2023-01-28T19:27:38;102447.94;;;3.50;61.66
30073;BME280;16897;52.422;13.678;2023-01-28T19:31:40;102482.44;;;3.76;61.59
30073;BME280;16897;52.422;13.678;2023-01-28T19:35:41;102483.28;;;3.74;61.43
30073;BME280;16897;52.422;13.678;2023-01-28T19:39:44;102476.38;;;3.64;61.55
30073;BME280;16897;52.422;13.678;2023-01-28T19:43:45;102449.66;;;3.48;61.54
30073;BME280;16897;52.422;13.678;2023-01-28T19:47:47;102474.66;;;3.64;61.44
30073;BME280;16897;52.422;13.678;2023-01-28T19:51:48;102486.72;;;3.62;61.71
30073;BME280;16897;52.422;13.678;2023-01-28T19:55:50;102416.03;;;3.19;61.57
30073;BME280;16897;52.422;13.678;2023-01-28T19:59:52;102484.94;;;3.50;61.60
30073;BME280;16897;52.422;13.678;2023-01-28T20:03:55;102494.44;;;3.56;61.56
30073;BME280;16897;52.422;13.678;2023-01-28T20:07:58;102503.06;;;3.64;61.67
30073;BME280;16897;52.422;13.678;2023-01-28T20:11:59;102488.41;;;3.49;61.66
30073;BME280;16897;52.422;13.678;2023-01-28T20:16:08;102509.94;;;3.59;61.49
30073;BME280;16897;52.422;13.678;2023-01-28T20:20:12;102515.09;;;3.58;61.47
30073;BME280;16897;52.422;13.678;2023-01-28T20:24:14;102528.03;;;3.61;61.54
30073;BME280;16897;52.422;13.678;2023-01-28T20:28:15;102514.25;;;3.54;61.57
30073;BME280;16897;52.422;13.678;2023-01-28T20:32:18;102476.31;;;3.39;61.59
30073;BME280;16897;52.422;13.678;2023-01-28T20:36:19;102469.41;;;3.32;61.52
30073;BME280;16897;52.422;13.678;2023-01-28T20:40:20;102481.50;;;3.45;61.30
30073;BME280;16897;52.422;13.678;2023-01-28T20:44:22;102484.09;;;3.50;61.31
30073;BME280;16897;52.422;13.678;2023-01-28T20:48:23;102497.00;;;3.56;61.31
30073;BME280;16897;52.422;13.678;2023-01-28T20:52:25;102404.78;;;2.95;61.32
30073;BME280;16897;52.422;13.678;2023-01-28T20:56:27;102507.34;;;3.56;61.44
30073;BME280;16897;52.422;13.678;2023-01-28T21:00:30;102490.13;;;3.50;61.44
30073;BME280;16897;52.422;13.678;2023-01-28T21:04:32;102423.75;;;3.17;61.39
30073;BME280;16897;52.422;13.678;2023-01-28T21:08:34;102481.50;;;3.50;61.54
30073;BME280;16897;52.422;13.678;2023-01-28T21:12:35;102477.19;;;3.44;61.46
30073;BME280;16897;52.422;13.678;2023-01-28T21:16:37;102466.84;;;3.35;61.44
30073;BME280;16897;52.422;13.678;2023-01-28T21:20:42;102476.28;;;3.28;61.39
30073;BME280;16897;52.422;13.678;2023-01-28T21:24:43;102486.63;;;3.36;61.59
30073;BME280;16897;52.422;13.678;2023-01-28T21:28:46;102443.56;;;3.20;61.35
30073;BME280;16897;52.422;13.678;2023-01-28T21:32:48;102453.06;;;3.27;61.63
30073;BME280;16897;52.422;13.678;2023-01-28T21:36:49;102438.38;;;3.18;61.31
30073;BME280;16897;52.422;13.678;2023-01-28T21:40:50;102414.25;;;3.04;61.42
30073;BME280;16897;52.422;13.678;2023-01-28T21:44:52;102460.81;;;3.27;61.19
30073;BME280;16897;52.422;13.678;2023-01-28T21:48:55;102453.88;;;3.20;61.41
30073;BME280;16897;52.422;13.678;2023-01-28T21:52:57;102450.44;;;3.15;61.45
30073;BME280;16897;52.422;13.678;2023-01-28T21:56:58;102464.22;;;3.26;61.31
30073;BME280;16897;52.422;13.678;2023-01-28T22:01:07;102470.25;;;3.23;61.30
30073;BME280;16897;52.422;13.678;2023-01-28T22:05:09;102457.31;;;3.17;61.41
30073;BME280;16897;52.422;13.678;2023-01-28T22:09:11;102451.28;;;3.09;61.43
30073;BME280;16897;52.422;13.678;2023-01-28T22:13:13;102462.44;;;3.09;61.34
30073;BME280;16897;52.422;13.678;2023-01-28T22:17:15;102451.25;;;3.04;61.37
30073;BME280;16897;52.422;13.678;2023-01-28T22:21:18;102450.41;;;3.05;61.18
30073;BME280;16897;52.422;13.678;2023-01-28T22:25:20;102439.22;;;3.03;61.40
30073;BME280;16897;52.422;13.678;2023-01-28T22:29:22;102436.59;;;2.99;61.53
30073;BME280;16897;52.422;13.678;2023-01-28T22:33:25;102452.09;;;3.02;61.42
30073;BME280;16897;52.422;13.678;2023-01-28T22:37:27;102352.09;;;2.42;61.26
30073;BME280;16897;52.422;13.678;2023-01-28T22:41:29;102390.88;;;2.67;61.38
30073;BME280;16897;52.422;13.678;2023-01-28T22:45:31;102429.66;;;2.84;61.41
30073;BME280;16897;52.422;13.678;2023-01-28T22:49:32;102444.28;;;2.88;61.36
30073;BME280;16897;52.422;13.678;2023-01-28T22:53:33;102449.47;;;2.90;61.37
30073;BME280;16897;52.422;13.678;2023-01-28T22:57:35;102437.44;;;2.90;61.34
30073;BME280;16897;52.422;13.678;2023-01-28T23:01:49;102425.34;;;2.77;61.29
30073;BME280;16897;52.422;13.678;2023-01-28T23:05:50;102433.09;;;2.83;61.47
30073;BME280;16897;52.422;13.678;2023-01-28T23:09:52;102396.88;;;2.57;61.36
30073;BME280;16897;52.422;13.678;2023-01-28T23:14:01;102420.97;;;2.70;61.20
30073;BME280;16897;52.422;13.678;2023-01-28T23:18:22;102445.09;;;2.75;61.36
30073;BME280;16897;52.422;13.678;2023-01-28T23:22:42;102412.34;;;2.61;61.43
30073;BME280;16897;52.422;13.678;2023-01-28T23:27:03;102415.81;;;2.70;61.29
30073;BME280;16897;52.422;13.678;2023-01-28T23:31:04;102396.06;;;2.65;61.35